sensor_id;sensor_type;location;lat;lon;timestamp;pressure;altitude;pressure_sealevel;temperature;humidity
69796;BME280;57073;45.650;9.612;2023-05-19T00:02:10;99439.28;;;15.29;55.14
69796;BME280;57073;45.650;9.612;2023-05-19T00:07:10;99443.09;;;15.28;54.77
69796;BME280;57073;45.650;9.612;2023-05-19T00:12:12;99442.25;;;15.27;55.50
69796;BME280;57073;45.650;9.612;2023-05-19T00:17:13;99442.53;;;15.31;55.06
69796;BME280;57073;45.650;9.612;2023-05-19T00:22:15;99436.00;;;15.27;55.40
69796;BME280;57073;45.650;9.612;2023-05-19T00:27:16;99436.75;;;15.12;55.81
69796;BME280;57073;45.650;9.612;2023-05-19T00:32:17;99429.97;;;15.14;56.08
69796;BME280;57073;45.650;9.612;2023-05-19T00:37:17;99425.59;;;15.08;56.20
69796;BME280;57073;45.650;9.612;2023-05-19T00:42:18;99438.66;;;15.11;57.09
69796;BME280;57073;45.650;9.612;2023-05-19T00:47:20;99431.63;;;15.15;56.95
69796;BME280;57073;45.650;9.612;2023-05-19T00:52:22;99431.59;;;15.10;56.79
69796;BME280;57073;45.650;9.612;2023-05-19T00:57:22;99426.38;;;15.04;58.08
69796;BME280;57073;45.650;9.612;2023-05-19T01:02:23;99428.25;;;14.98;58.21
69796;BME280;57073;45.650;9.612;2023-05-19T01:07:23;99423.66;;;15.04;57.20
69796;BME280;57073;45.650;9.612;2023-05-19T01:12:24;99422.63;;;15.10;57.59
69796;BME280;57073;45.650;9.612;2023-05-19T01:17:32;99421.78;;;15.04;57.78
69796;BME280;57073;45.650;9.612;2023-05-19T01:33:30;99411.50;;;15.11;58.31
69796;BME280;57073;45.650;9.612;2023-05-19T01:38:33;99422.00;;;14.97;60.36
69796;BME280;57073;45.650;9.612;2023-05-19T01:43:34;99423.94;;;15.02;60.10
69796;BME280;57073;45.650;9.612;2023-05-19T01:48:35;99420.69;;;15.05;59.75
69796;BME280;57073;45.650;9.612;2023-05-19T01:53:36;99414.41;;;14.99;60.50
69796;BME280;57073;45.650;9.612;2023-05-19T01:58:47;99422.56;;;14.99;60.30
69796;BME280;57073;45.650;9.612;2023-05-19T02:03:59;99421.38;;;14.85;60.72
69796;BME280;57073;45.650;9.612;2023-05-19T02:14:11;99419.69;;;14.79;60.25
69796;BME280;57073;45.650;9.612;2023-05-19T02:19:39;99416.94;;;14.74;59.74
69796;BME280;57073;45.650;9.612;2023-05-19T02:24:40;99412.84;;;14.66;60.33
69796;BME280;57073;45.650;9.612;2023-05-19T02:29:40;99419.13;;;14.72;60.98
69796;BME280;57073;45.650;9.612;2023-05-19T02:34:41;99422.88;;;14.71;60.61
69796;BME280;57073;45.650;9.612;2023-05-19T02:39:44;99415.03;;;14.74;59.80
69796;BME280;57073;45.650;9.612;2023-05-19T02:44:44;99414.19;;;14.69;60.12
69796;BME280;57073;45.650;9.612;2023-05-19T02:49:45;99411.78;;;14.72;59.84
69796;BME280;57073;45.650;9.612;2023-05-19T02:54:45;99408.75;;;14.69;60.66
69796;BME280;57073;45.650;9.612;2023-05-19T02:59:46;99407.97;;;14.68;61.10
69796;BME280;57073;45.650;9.612;2023-05-19T03:04:46;99401.19;;;14.71;61.37
69796;BME280;57073;45.650;9.612;2023-05-19T03:09:46;99402.03;;;14.71;60.35
69796;BME280;57073;45.650;9.612;2023-05-19T03:14:47;99401.44;;;14.64;60.86
69796;BME280;57073;45.650;9.612;2023-05-19T03:19:47;99400.28;;;14.60;60.92
69796;BME280;57073;45.650;9.612;2023-05-19T03:24:47;99403.03;;;14.65;61.03
69796;BME280;57073;45.650;9.612;2023-05-19T03:29:50;99404.13;;;14.64;61.31
69796;BME280;57073;45.650;9.612;2023-05-19T03:34:51;99404.69;;;14.66;61.44
69796;BME280;57073;45.650;9.612;2023-05-19T03:39:52;99415.72;;;14.54;60.34
69796;BME280;57073;45.650;9.612;2023-05-19T03:44:53;99411.09;;;14.55;60.78
69796;BME280;57073;45.650;9.612;2023-05-19T03:49:53;99420.09;;;14.55;60.26
69796;BME280;57073;45.650;9.612;2023-05-19T03:54:53;99424.41;;;14.51;60.36
69796;BME280;57073;45.650;9.612;2023-05-19T03:59:54;99426.81;;;14.53;60.72
69796;BME280;57073;45.650;9.612;2023-05-19T04:04:54;99425.72;;;14.49;61.88
69796;BME280;57073;45.650;9.612;2023-05-19T04:09:55;99433.41;;;14.57;61.05
69796;BME280;57073;45.650;9.612;2023-05-19T04:14:55;99434.75;;;14.59;60.20
69796;BME280;57073;45.650;9.612;2023-05-19T04:19:56;99439.34;;;14.54;60.73
69796;BME280;57073;45.650;9.612;2023-05-19T04:24:56;99441.44;;;14.47;61.32
69796;BME280;57073;45.650;9.612;2023-05-19T04:29:57;99440.34;;;14.42;61.29
69796;BME280;57073;45.650;9.612;2023-05-19T04:34:58;99436.56;;;14.49;61.96
69796;BME280;57073;45.650;9.612;2023-05-19T04:39:58;99434.34;;;14.40;63.25
69796;BME280;57073;45.650;9.612;2023-05-19T04:44:59;99439.78;;;14.46;64.09
69796;BME280;57073;45.650;9.612;2023-05-19T04:49:59;99446.56;;;14.43;64.55
69796;BME280;57073;45.650;9.612;2023-05-19T04:55:00;99448.47;;;14.42;65.26
69796;BME280;57073;45.650;9.612;2023-05-19T05:00:00;99449.78;;;14.40;64.49
69796;BME280;57073;45.650;9.612;2023-05-19T05:05:00;99458.78;;;14.46;64.63
69796;BME280;57073;45.650;9.612;2023-05-19T05:10:01;99453.44;;;14.56;64.53
69796;BME280;57073;45.650;9.612;2023-05-19T05:15:04;99458.13;;;14.60;63.78
69796;BME280;57073;45.650;9.612;2023-05-19T05:20:06;99463.56;;;14.66;63.78
69796;BME280;57073;45.650;9.612;2023-05-19T05:25:07;99455.69;;;14.64;63.42
69796;BME280;57073;45.650;9.612;2023-05-19T05:30:08;99465.22;;;14.67;63.54
69796;BME280;57073;45.650;9.612;2023-05-19T05:35:09;99459.81;;;14.72;63.57
69796;BME280;57073;45.650;9.612;2023-05-19T05:40:09;99475.44;;;14.87;62.86
69796;BME280;57073;45.650;9.612;2023-05-19T05:45:10;99471.91;;;14.86;62.94
69796;BME280;57073;45.650;9.612;2023-05-19T05:50:11;99472.63;;;14.81;63.94
69796;BME280;57073;45.650;9.612;2023-05-19T05:55:13;99470.28;;;14.90;63.05
69796;BME280;57073;45.650;9.612;2023-05-19T06:00:13;99464.91;;;14.95;61.30
69796;BME280;57073;45.650;9.612;2023-05-19T06:05:17;99480.41;;;15.00;61.88
69796;BME280;57073;45.650;9.612;2023-05-19T06:10:17;99478.00;;;15.09;61.05
69796;BME280;57073;45.650;9.612;2023-05-19T06:15:18;99477.50;;;15.12;58.22
69796;BME280;57073;45.650;9.612;2023-05-19T06:20:18;99481.66;;;15.25;58.37
69796;BME280;57073;45.650;9.612;2023-05-19T06:25:19;99478.44;;;15.33;58.62
69796;BME280;57073;45.650;9.612;2023-05-19T06:30:19;99473.03;;;15.43;58.27
69796;BME280;57073;45.650;9.612;2023-05-19T06:35:20;99488.50;;;15.37;57.94
69796;BME280;57073;45.650;9.612;2023-05-19T06:40:21;99495.88;;;15.42;58.03
69796;BME280;57073;45.650;9.612;2023-05-19T06:45:22;99499.97;;;15.50;56.46
69796;BME280;57073;45.650;9.612;2023-05-19T06:50:23;99504.34;;;15.56;55.97
69796;BME280;57073;45.650;9.612;2023-05-19T06:55:24;99505.19;;;15.56;55.81
69796;BME280;57073;45.650;9.612;2023-05-19T07:00:24;99506.88;;;15.68;54.93
69796;BME280;57073;45.650;9.612;2023-05-19T07:05:25;99512.00;;;15.64;55.00
69796;BME280;57073;45.650;9.612;2023-05-19T07:10:26;99501.16;;;15.74;54.74
69796;BME280;57073;45.650;9.612;2023-05-19T07:15:26;99507.47;;;15.80;54.39
69796;BME280;57073;45.650;9.612;2023-05-19T07:20:27;99508.63;;;15.89;54.03
69796;BME280;57073;45.650;9.612;2023-05-19T07:25:27;99511.34;;;15.94;53.76
69796;BME280;57073;45.650;9.612;2023-05-19T07:30:29;99498.53;;;15.90;53.12
69796;BME280;57073;45.650;9.612;2023-05-19T07:35:30;99491.41;;;15.78;52.42
69796;BME280;57073;45.650;9.612;2023-05-19T07:40:30;99496.56;;;15.75;52.59
69796;BME280;57073;45.650;9.612;2023-05-19T07:45:30;99499.91;;;15.87;53.04
69796;BME280;57073;45.650;9.612;2023-05-19T07:50:31;99499.34;;;15.90;52.65
69796;BME280;57073;45.650;9.612;2023-05-19T07:55:31;99503.97;;;15.90;52.83
69796;BME280;57073;45.650;9.612;2023-05-19T08:00:32;99501.75;;;15.82;52.00
69796;BME280;57073;45.650;9.612;2023-05-19T08:05:33;99498.81;;;15.93;52.25
69796;BME280;57073;45.650;9.612;2023-05-19T08:10:34;99493.16;;;16.00;52.12
69796;BME280;57073;45.650;9.612;2023-05-19T08:15:34;99492.88;;;16.07;50.69
69796;BME280;57073;45.650;9.612;2023-05-19T08:20:35;99492.09;;;16.27;51.66
69796;BME280;57073;45.650;9.612;2023-05-19T08:25:35;99492.41;;;16.46;51.48
69796;BME280;57073;45.650;9.612;2023-05-19T08:30:36;99493.50;;;16.55;49.53
69796;BME280;57073;45.650;9.612;2023-05-19T08:35:37;99491.31;;;16.42;48.97
69796;BME280;57073;45.650;9.612;2023-05-19T08:40:40;99491.84;;;16.33;49.46
69796;BME280;57073;45.650;9.612;2023-05-19T08:45:43;99493.47;;;16.24;49.81
69796;BME280;57073;45.650;9.612;2023-05-19T08:56:22;99496.94;;;15.99;50.73
69796;BME280;57073;45.650;9.612;2023-05-19T09:01:24;99498.56;;;15.95;50.43
69796;BME280;57073;45.650;9.612;2023-05-19T09:06:26;99497.75;;;16.00;51.16
69796;BME280;57073;45.650;9.612;2023-05-19T09:11:26;99500.53;;;16.35;50.27
69796;BME280;57073;45.650;9.612;2023-05-19T09:16:27;99503.28;;;16.41;50.21
69796;BME280;57073;45.650;9.612;2023-05-19T09:21:29;99496.22;;;16.60;50.17
69796;BME280;57073;45.650;9.612;2023-05-19T09:26:39;99497.81;;;16.30;49.53
69796;BME280;57073;45.650;9.612;2023-05-19T09:31:53;99495.09;;;16.35;49.40
69796;BME280;57073;45.650;9.612;2023-05-19T09:36:55;99496.41;;;16.12;50.29
69796;BME280;57073;45.650;9.612;2023-05-19T09:41:56;99489.63;;;16.10;51.28
69796;BME280;57073;45.650;9.612;2023-05-19T09:46:57;99497.75;;;16.00;51.09
69796;BME280;57073;45.650;9.612;2023-05-19T09:52:01;99491.47;;;15.94;52.14
69796;BME280;57073;45.650;9.612;2023-05-19T09:57:03;99498.81;;;15.93;51.97
69796;BME280;57073;45.650;9.612;2023-05-19T10:02:04;99495.34;;;16.13;51.66
69796;BME280;57073;45.650;9.612;2023-05-19T10:07:08;99492.38;;;16.35;50.95
69796;BME280;57073;45.650;9.612;2023-05-19T10:12:11;99482.59;;;16.40;50.65
69796;BME280;57073;45.650;9.612;2023-05-19T10:17:12;99493.50;;;16.60;50.64
69796;BME280;57073;45.650;9.612;2023-05-19T10:22:13;99477.16;;;16.55;51.07
69796;BME280;57073;45.650;9.612;2023-05-19T10:27:14;99476.91;;;16.57;50.71
69796;BME280;57073;45.650;9.612;2023-05-19T10:32:18;99485.63;;;16.74;49.70
69796;BME280;57073;45.650;9.612;2023-05-19T10:37:36;99485.88;;;16.88;50.95
69796;BME280;57073;45.650;9.612;2023-05-19T10:43:29;99495.34;;;17.21;51.06
69796;BME280;57073;45.650;9.612;2023-05-19T10:48:03;99486.38;;;17.31;50.23
69796;BME280;57073;45.650;9.612;2023-05-19T10:53:03;99488.59;;;16.62;50.39
69796;BME280;57073;45.650;9.612;2023-05-19T10:58:03;99491.31;;;17.08;50.71
69796;BME280;57073;45.650;9.612;2023-05-19T11:03:16;99487.28;;;16.85;49.81
69796;BME280;57073;45.650;9.612;2023-05-19T11:08:31;99483.44;;;16.91;50.24
69796;BME280;57073;45.650;9.612;2023-05-19T11:13:32;99475.81;;;16.88;50.39
69796;BME280;57073;45.650;9.612;2023-05-19T11:18:32;99475.84;;;16.78;50.31
69796;BME280;57073;45.650;9.612;2023-05-19T11:23:36;99469.81;;;16.61;50.95
69796;BME280;57073;45.650;9.612;2023-05-19T11:28:38;99473.91;;;16.73;50.48
69796;BME280;57073;45.650;9.612;2023-05-19T11:33:38;99466.81;;;16.62;52.57
69796;BME280;57073;45.650;9.612;2023-05-19T11:38:39;99468.72;;;16.46;53.24
69796;BME280;57073;45.650;9.612;2023-05-19T11:43:40;99462.72;;;16.60;53.30
69796;BME280;57073;45.650;9.612;2023-05-19T11:48:41;99460.56;;;16.62;52.50
69796;BME280;57073;45.650;9.612;2023-05-19T11:53:41;99458.94;;;16.71;52.10
69796;BME280;57073;45.650;9.612;2023-05-19T11:58:43;99464.91;;;16.42;53.12
69796;BME280;57073;45.650;9.612;2023-05-19T12:03:44;99465.75;;;16.58;52.19
69796;BME280;57073;45.650;9.612;2023-05-19T12:08:45;99460.00;;;16.34;52.40
69796;BME280;57073;45.650;9.612;2023-05-19T12:13:46;99452.91;;;16.23;52.05
69796;BME280;57073;45.650;9.612;2023-05-19T12:18:47;99455.38;;;16.55;51.40
69796;BME280;57073;45.650;9.612;2023-05-19T12:23:47;99458.09;;;16.45;51.99
69796;BME280;57073;45.650;9.612;2023-05-19T12:28:48;99451.28;;;16.63;50.69
69796;BME280;57073;45.650;9.612;2023-05-19T12:33:50;99454.31;;;16.56;51.82
69796;BME280;57073;45.650;9.612;2023-05-19T12:38:54;99441.50;;;16.21;51.46
69796;BME280;57073;45.650;9.612;2023-05-19T12:43:54;99444.78;;;16.38;51.00
69796;BME280;57073;45.650;9.612;2023-05-19T12:48:57;99452.88;;;16.02;54.24
69796;BME280;57073;45.650;9.612;2023-05-19T12:54:01;99459.13;;;15.98;55.46
69796;BME280;57073;45.650;9.612;2023-05-19T12:59:02;99468.00;;;15.72;57.79
69796;BME280;57073;45.650;9.612;2023-05-19T13:04:03;99465.63;;;15.86;58.47
69796;BME280;57073;45.650;9.612;2023-05-19T13:09:03;99464.19;;;15.73;58.76
69796;BME280;57073;45.650;9.612;2023-05-19T13:14:03;99463.84;;;15.54;59.79
69796;BME280;57073;45.650;9.612;2023-05-19T13:19:04;99468.69;;;15.42;60.98
69796;BME280;57073;45.650;9.612;2023-05-19T13:24:05;99469.19;;;15.34;61.84
69796;BME280;57073;45.650;9.612;2023-05-19T13:29:05;99472.97;;;15.28;61.98
69796;BME280;57073;45.650;9.612;2023-05-19T13:34:05;99472.88;;;15.12;62.40
69796;BME280;57073;45.650;9.612;2023-05-19T13:39:06;99474.00;;;15.22;64.32
69796;BME280;57073;45.650;9.612;2023-05-19T13:44:06;99476.72;;;15.22;64.32
69796;BME280;57073;45.650;9.612;2023-05-19T13:49:06;99477.19;;;15.08;65.56
69796;BME280;57073;45.650;9.612;2023-05-19T13:54:07;99479.09;;;15.08;65.02
69796;BME280;57073;45.650;9.612;2023-05-19T13:59:07;99469.75;;;14.88;64.78
69796;BME280;57073;45.650;9.612;2023-05-19T14:04:08;99475.25;;;14.98;65.84
69796;BME280;57073;45.650;9.612;2023-05-19T14:09:09;99466.91;;;15.10;66.41
69796;BME280;57073;45.650;9.612;2023-05-19T14:14:09;99469.81;;;15.04;67.93
69796;BME280;57073;45.650;9.612;2023-05-19T14:19:10;99471.25;;;15.11;67.30
69796;BME280;57073;45.650;9.612;2023-05-19T14:24:10;99464.22;;;15.15;67.86
69796;BME280;57073;45.650;9.612;2023-05-19T14:29:10;99461.19;;;15.12;65.12
69796;BME280;57073;45.650;9.612;2023-05-19T14:34:11;99454.56;;;14.92;65.62
69796;BME280;57073;45.650;9.612;2023-05-19T14:39:11;99453.72;;;14.87;67.05
69796;BME280;57073;45.650;9.612;2023-05-19T14:44:12;99454.06;;;14.63;65.74
69796;BME280;57073;45.650;9.612;2023-05-19T14:49:12;99447.88;;;14.73;66.10
69796;BME280;57073;45.650;9.612;2023-05-19T14:54:13;99441.13;;;14.75;66.15
69796;BME280;57073;45.650;9.612;2023-05-19T14:59:13;99439.25;;;14.81;67.18
69796;BME280;57073;45.650;9.612;2023-05-19T15:04:13;99443.34;;;14.83;67.06
69796;BME280;57073;45.650;9.612;2023-05-19T15:09:14;99433.56;;;14.82;68.82
69796;BME280;57073;45.650;9.612;2023-05-19T15:14:14;99422.88;;;14.71;67.51
69796;BME280;57073;45.650;9.612;2023-05-19T15:19:15;99429.28;;;14.87;67.76
69796;BME280;57073;45.650;9.612;2023-05-19T15:24:15;99429.06;;;14.93;68.54
69796;BME280;57073;45.650;9.612;2023-05-19T15:29:16;99423.63;;;14.93;66.67
69796;BME280;57073;45.650;9.612;2023-05-19T15:34:18;99416.84;;;14.96;67.56
69796;BME280;57073;45.650;9.612;2023-05-19T15:39:18;99422.00;;;14.97;67.04
69796;BME280;57073;45.650;9.612;2023-05-19T15:44:18;99413.09;;;15.02;67.29
69796;BME280;57073;45.650;9.612;2023-05-19T15:49:19;99417.34;;;14.88;69.69
69796;BME280;57073;45.650;9.612;2023-05-19T15:54:19;99409.41;;;14.81;66.71
69796;BME280;57073;45.650;9.612;2023-05-19T15:59:20;99409.88;;;14.73;66.06
69796;BME280;57073;45.650;9.612;2023-05-19T16:04:20;99412.19;;;14.54;67.03
69796;BME280;57073;45.650;9.612;2023-05-19T16:09:20;99409.59;;;14.32;68.02
69796;BME280;57073;45.650;9.612;2023-05-19T16:14:21;99399.25;;;14.29;68.08
69796;BME280;57073;45.650;9.612;2023-05-19T16:19:22;99397.56;;;14.22;69.09
69796;BME280;57073;45.650;9.612;2023-05-19T16:24:23;99387.94;;;14.04;68.81
69796;BME280;57073;45.650;9.612;2023-05-19T16:29:23;99390.34;;;14.01;69.06
69796;BME280;57073;45.650;9.612;2023-05-19T16:34:23;99397.31;;;13.97;69.57
69796;BME280;57073;45.650;9.612;2023-05-19T16:39:24;99393.75;;;13.91;69.92
69796;BME280;57073;45.650;9.612;2023-05-19T16:44:24;99387.38;;;13.80;70.79
69796;BME280;57073;45.650;9.612;2023-05-19T16:49:25;99388.16;;;13.76;70.43
69796;BME280;57073;45.650;9.612;2023-05-19T16:54:25;99386.72;;;13.90;70.50
69796;BME280;57073;45.650;9.612;2023-05-19T16:59:27;99378.31;;;13.92;70.45
69796;BME280;57073;45.650;9.612;2023-05-19T17:04:27;99379.69;;;13.94;70.56
69796;BME280;57073;45.650;9.612;2023-05-19T17:09:27;99380.00;;;13.98;70.67
69796;BME280;57073;45.650;9.612;2023-05-19T17:14:28;99386.78;;;14.00;70.73
69796;BME280;57073;45.650;9.612;2023-05-19T17:19:28;99388.94;;;13.98;71.76
69796;BME280;57073;45.650;9.612;2023-05-19T17:24:28;99382.47;;;13.99;72.50
69796;BME280;57073;45.650;9.612;2023-05-19T17:29:32;99381.97;;;14.08;71.19
69796;BME280;57073;45.650;9.612;2023-05-19T17:34:32;99378.97;;;14.04;70.43
69796;BME280;57073;45.650;9.612;2023-05-19T17:39:33;99374.88;;;14.01;70.98
69796;BME280;57073;45.650;9.612;2023-05-19T17:44:33;99377.09;;;14.04;70.31
69796;BME280;57073;45.650;9.612;2023-05-19T17:49:33;99391.16;;;14.01;72.31
69796;BME280;57073;45.650;9.612;2023-05-19T17:54:34;99385.97;;;14.00;72.22
69796;BME280;57073;45.650;9.612;2023-05-19T17:59:35;99384.88;;;13.96;70.88
69796;BME280;57073;45.650;9.612;2023-05-19T18:04:35;99390.78;;;13.93;71.27
69796;BME280;57073;45.650;9.612;2023-05-19T18:09:36;99391.41;;;14.00;71.11
69796;BME280;57073;45.650;9.612;2023-05-19T18:14:38;99395.66;;;13.91;71.95
69796;BME280;57073;45.650;9.612;2023-05-19T18:19:38;99396.75;;;13.90;72.61
69796;BME280;57073;45.650;9.612;2023-05-19T18:24:39;99389.78;;;13.77;73.23
69796;BME280;57073;45.650;9.612;2023-05-19T18:29:40;99398.22;;;13.80;73.89
69796;BME280;57073;45.650;9.612;2023-05-19T18:34:41;99408.09;;;13.86;72.93
69796;BME280;57073;45.650;9.612;2023-05-19T18:39:41;99415.41;;;13.86;73.05
69796;BME280;57073;45.650;9.612;2023-05-19T18:44:42;99409.41;;;13.84;73.34
69796;BME280;57073;45.650;9.612;2023-05-19T18:49:45;99415.00;;;13.77;73.07
69796;BME280;57073;45.650;9.612;2023-05-19T18:54:46;99400.59;;;13.72;71.95
69796;BME280;57073;45.650;9.612;2023-05-19T18:59:47;99390.00;;;13.70;73.48
69796;BME280;57073;45.650;9.612;2023-05-19T19:04:47;99398.78;;;13.55;74.92
69796;BME280;57073;45.650;9.612;2023-05-19T19:09:48;99404.47;;;13.54;75.60
69796;BME280;57073;45.650;9.612;2023-05-19T19:14:48;99405.88;;;13.61;75.18
69796;BME280;57073;45.650;9.612;2023-05-19T19:19:48;99416.47;;;13.63;74.87
69796;BME280;57073;45.650;9.612;2023-05-19T19:24:49;99426.53;;;13.67;73.92
69796;BME280;57073;45.650;9.612;2023-05-19T19:29:49;99432.34;;;13.54;75.13
69796;BME280;57073;45.650;9.612;2023-05-19T19:34:50;99430.03;;;13.63;74.64
69796;BME280;57073;45.650;9.612;2023-05-19T19:39:53;99431.09;;;13.62;75.45
69796;BME280;57073;45.650;9.612;2023-05-19T19:44:54;99443.00;;;13.61;75.00
69796;BME280;57073;45.650;9.612;2023-05-19T19:49:55;99443.19;;;13.54;75.77
69796;BME280;57073;45.650;9.612;2023-05-19T19:54:56;99435.94;;;13.60;75.93
69796;BME280;57073;45.650;9.612;2023-05-19T19:59:56;99426.63;;;13.51;75.19
69796;BME280;57073;45.650;9.612;2023-05-19T20:05:05;99426.38;;;13.52;75.50
69796;BME280;57073;45.650;9.612;2023-05-19T20:10:06;99428.28;;;13.52;75.67
69796;BME280;57073;45.650;9.612;2023-05-19T20:15:07;99433.31;;;13.43;76.99
69796;BME280;57073;45.650;9.612;2023-05-19T20:20:08;99442.81;;;13.45;76.94
69796;BME280;57073;45.650;9.612;2023-05-19T20:25:10;99446.22;;;13.58;75.91
69796;BME280;57073;45.650;9.612;2023-05-19T20:30:11;99449.09;;;13.51;76.08
69796;BME280;57073;45.650;9.612;2023-05-19T20:35:12;99447.56;;;13.55;76.58
69796;BME280;57073;45.650;9.612;2023-05-19T20:40:12;99450.69;;;13.47;76.50
69796;BME280;57073;45.650;9.612;2023-05-19T20:45:12;99451.31;;;13.54;76.12
69796;BME280;57073;45.650;9.612;2023-05-19T20:50:13;99451.31;;;13.54;76.19
69796;BME280;57073;45.650;9.612;2023-05-19T20:55:13;99455.72;;;13.60;75.78
69796;BME280;57073;45.650;9.612;2023-05-19T21:00:14;99457.81;;;13.53;76.70
69796;BME280;57073;45.650;9.612;2023-05-19T21:05:14;99457.63;;;13.60;76.65
69796;BME280;57073;45.650;9.612;2023-05-19T21:10:15;99455.72;;;13.60;75.74
69796;BME280;57073;45.650;9.612;2023-05-19T21:15:17;99459.13;;;13.51;74.96
69796;BME280;57073;45.650;9.612;2023-05-19T21:20:17;99455.63;;;13.28;77.08
69796;BME280;57073;45.650;9.612;2023-05-19T21:25:17;99443.75;;;13.34;78.05
69796;BME280;57073;45.650;9.612;2023-05-19T21:30:18;99430.59;;;13.43;77.94
69796;BME280;57073;45.650;9.612;2023-05-19T21:35:18;99430.91;;;13.46;77.45
69796;BME280;57073;45.650;9.612;2023-05-19T21:40:18;99428.31;;;13.35;77.94
69796;BME280;57073;45.650;9.612;2023-05-19T21:45:19;99424.28;;;13.15;78.63
69796;BME280;57073;45.650;9.612;2023-05-19T21:50:19;99434.28;;;13.15;78.95
69796;BME280;57073;45.650;9.612;2023-05-19T21:55:20;99429.50;;;13.00;78.48
69796;BME280;57073;45.650;9.612;2023-05-19T22:00:21;99432.84;;;13.07;78.28
69796;BME280;57073;45.650;9.612;2023-05-19T22:05:21;99438.50;;;13.05;78.40
69796;BME280;57073;45.650;9.612;2023-05-19T22:10:22;99428.00;;;13.09;77.92
69796;BME280;57073;45.650;9.612;2023-05-19T22:15:22;99433.50;;;13.14;78.67
69796;BME280;57073;45.650;9.612;2023-05-19T22:20:22;99424.81;;;13.12;78.15
69796;BME280;57073;45.650;9.612;2023-05-19T22:25:23;99436.06;;;13.26;77.40
69796;BME280;57073;45.650;9.612;2023-05-19T22:30:23;99442.00;;;13.23;76.33
69796;BME280;57073;45.650;9.612;2023-05-19T22:35:24;99426.00;;;13.21;77.17
69796;BME280;57073;45.650;9.612;2023-05-19T22:40:24;99427.06;;;13.20;77.66
69796;BME280;57073;45.650;9.612;2023-05-19T22:45:25;99427.38;;;13.24;76.44
69796;BME280;57073;45.650;9.612;2023-05-19T22:50:25;99429.03;;;13.25;75.09
69796;BME280;57073;45.650;9.612;2023-05-19T22:55:25;99420.41;;;13.28;75.81
69796;BME280;57073;45.650;9.612;2023-05-19T23:00:26;99412.59;;;13.32;75.53
69796;BME280;57073;45.650;9.612;2023-05-19T23:05:26;99403.84;;;13.24;75.87
69796;BME280;57073;45.650;9.612;2023-05-19T23:10:26;99399.00;;;13.26;76.69
69796;BME280;57073;45.650;9.612;2023-05-19T23:15:27;99396.34;;;13.32;76.00
69796;BME280;57073;45.650;9.612;2023-05-19T23:20:27;99389.72;;;13.22;75.70
69796;BME280;57073;45.650;9.612;2023-05-19T23:25:27;99374.97;;;13.13;76.30
69796;BME280;57073;45.650;9.612;2023-05-19T23:30:28;99358.88;;;13.01;76.68
69796;BME280;57073;45.650;9.612;2023-05-19T23:35:29;99358.91;;;12.84;76.49
69796;BME280;57073;45.650;9.612;2023-05-19T23:40:29;99355.94;;;12.86;76.50
69796;BME280;57073;45.650;9.612;2023-05-19T23:45:30;99348.78;;;12.75;76.86
69796;BME280;57073;45.650;9.612;2023-05-19T23:50:31;99338.34;;;12.83;76.58
69796;BME280;57073;45.650;9.612;2023-05-19T23:55:31;99344.16;;;12.92;76.59
